Vancouver, Canada
Current Conditions -  °F | °C
As of 8:00 AM on Sunday 23 Nov 2014 (Local Time) from CYVR Reporting Station
Light Rain Light Rain  
Wind Chill:   Ceiling: 3400
Heat Index:   Visibility: 10mi
Dew Point:   Wind: 14mph
Humidity: 93%   Direction: 200°SSW
Pressure: 29.95"   Gusts: 23mph
Location:  49.26°N, 123.11°W
Report Text: CYVR 231600Z 20012G20KT 10SM -RA FEW021 BKN034 OVC055 08/07 A2995 RMK SF2ST4SC2 PRESFR SLP143
Loading
Personal Weather Stations






























Interactive Weather Map New forecast layout! Learn more

10-Day Weather Forecast

Advertisements
Track Severe Weather on mobile